sensor_id;sensor_type;location;lat;lon;timestamp;P1;durP1;ratioP1;P2;durP2;ratioP2
24685;SDS011;12804;51.176;4.452;2024-02-16T00:01:00;3.78;;;1.70;;
24685;SDS011;12804;51.176;4.452;2024-02-16T00:03:26;1.70;;;1.27;;
24685;SDS011;12804;51.176;4.452;2024-02-16T00:05:52;2.10;;;1.50;;
24685;SDS011;12804;51.176;4.452;2024-02-16T00:08:18;7.60;;;1.60;;
24685;SDS011;12804;51.176;4.452;2024-02-16T00:10:45;3.80;;;1.42;;
24685;SDS011;12804;51.176;4.452;2024-02-16T00:13:11;2.55;;;1.30;;
24685;SDS011;12804;51.176;4.452;2024-02-16T00:15:38;3.75;;;1.40;;
24685;SDS011;12804;51.176;4.452;2024-02-16T00:18:06;3.58;;;1.60;;
24685;SDS011;12804;51.176;4.452;2024-02-16T00:20:33;2.90;;;1.80;;
24685;SDS011;12804;51.176;4.452;2024-02-16T00:22:59;2.42;;;1.50;;
24685;SDS011;12804;51.176;4.452;2024-02-16T00:25:27;2.60;;;1.45;;
24685;SDS011;12804;51.176;4.452;2024-02-16T00:27:53;4.05;;;1.50;;
24685;SDS011;12804;51.176;4.452;2024-02-16T00:30:19;5.50;;;1.50;;
24685;SDS011;12804;51.176;4.452;2024-02-16T00:32:45;2.78;;;1.70;;
24685;SDS011;12804;51.176;4.452;2024-02-16T00:35:11;3.10;;;1.60;;
24685;SDS011;12804;51.176;4.452;2024-02-16T00:37:37;2.40;;;1.70;;
24685;SDS011;12804;51.176;4.452;2024-02-16T00:40:03;3.20;;;1.75;;
24685;SDS011;12804;51.176;4.452;2024-02-16T00:42:31;2.50;;;1.65;;
24685;SDS011;12804;51.176;4.452;2024-02-16T00:44:57;5.10;;;1.67;;
24685;SDS011;12804;51.176;4.452;2024-02-16T00:47:25;3.42;;;1.77;;
24685;SDS011;12804;51.176;4.452;2024-02-16T00:49:55;3.28;;;1.80;;
24685;SDS011;12804;51.176;4.452;2024-02-16T00:52:22;2.42;;;1.50;;
24685;SDS011;12804;51.176;4.452;2024-02-16T00:54:48;4.38;;;1.65;;
24685;SDS011;12804;51.176;4.452;2024-02-16T00:57:14;2.28;;;1.55;;
24685;SDS011;12804;51.176;4.452;2024-02-16T00:59:40;1.80;;;1.42;;
24685;SDS011;12804;51.176;4.452;2024-02-16T01:02:06;4.13;;;1.60;;
24685;SDS011;12804;51.176;4.452;2024-02-16T01:04:33;3.47;;;1.80;;
24685;SDS011;12804;51.176;4.452;2024-02-16T01:06:59;1.77;;;1.52;;
24685;SDS011;12804;51.176;4.452;2024-02-16T01:09:24;2.80;;;1.63;;
24685;SDS011;12804;51.176;4.452;2024-02-16T01:11:52;2.88;;;1.45;;
24685;SDS011;12804;51.176;4.452;2024-02-16T01:14:18;4.63;;;1.70;;
24685;SDS011;12804;51.176;4.452;2024-02-16T01:16:44;2.53;;;1.80;;
24685;SDS011;12804;51.176;4.452;2024-02-16T01:19:11;3.83;;;1.75;;
24685;SDS011;12804;51.176;4.452;2024-02-16T01:21:37;2.45;;;1.40;;
24685;SDS011;12804;51.176;4.452;2024-02-16T01:24:02;2.72;;;1.38;;
24685;SDS011;12804;51.176;4.452;2024-02-16T01:26:28;2.72;;;1.70;;
24685;SDS011;12804;51.176;4.452;2024-02-16T01:28:54;3.22;;;1.65;;
24685;SDS011;12804;51.176;4.452;2024-02-16T01:31:20;2.67;;;1.63;;
24685;SDS011;12804;51.176;4.452;2024-02-16T01:33:46;1.80;;;1.40;;
24685;SDS011;12804;51.176;4.452;2024-02-16T01:36:12;1.98;;;1.50;;
24685;SDS011;12804;51.176;4.452;2024-02-16T01:38:38;2.90;;;1.42;;
24685;SDS011;12804;51.176;4.452;2024-02-16T01:41:03;1.92;;;1.52;;
24685;SDS011;12804;51.176;4.452;2024-02-16T01:43:30;2.85;;;1.63;;
24685;SDS011;12804;51.176;4.452;2024-02-16T01:45:56;2.33;;;1.70;;
24685;SDS011;12804;51.176;4.452;2024-02-16T01:48:24;3.63;;;1.50;;
24685;SDS011;12804;51.176;4.452;2024-02-16T01:50:51;4.07;;;1.50;;
24685;SDS011;12804;51.176;4.452;2024-02-16T01:53:18;2.05;;;1.73;;
24685;SDS011;12804;51.176;4.452;2024-02-16T01:55:47;2.05;;;1.50;;
24685;SDS011;12804;51.176;4.452;2024-02-16T01:58:14;3.50;;;1.55;;
24685;SDS011;12804;51.176;4.452;2024-02-16T02:00:40;3.22;;;1.42;;
24685;SDS011;12804;51.176;4.452;2024-02-16T02:03:06;2.67;;;1.42;;
24685;SDS011;12804;51.176;4.452;2024-02-16T02:05:32;2.13;;;1.30;;
24685;SDS011;12804;51.176;4.452;2024-02-16T02:07:58;2.45;;;1.63;;
24685;SDS011;12804;51.176;4.452;2024-02-16T02:10:24;2.05;;;1.48;;
24685;SDS011;12804;51.176;4.452;2024-02-16T02:12:50;2.70;;;1.58;;
24685;SDS011;12804;51.176;4.452;2024-02-16T02:15:16;2.85;;;1.50;;
24685;SDS011;12804;51.176;4.452;2024-02-16T02:17:42;3.10;;;1.52;;
24685;SDS011;12804;51.176;4.452;2024-02-16T02:20:08;1.75;;;1.33;;
24685;SDS011;12804;51.176;4.452;2024-02-16T02:22:38;1.90;;;1.45;;
24685;SDS011;12804;51.176;4.452;2024-02-16T02:25:04;4.70;;;1.40;;
24685;SDS011;12804;51.176;4.452;2024-02-16T02:27:30;3.15;;;1.20;;
24685;SDS011;12804;51.176;4.452;2024-02-16T02:29:56;2.70;;;1.70;;
24685;SDS011;12804;51.176;4.452;2024-02-16T02:32:23;3.03;;;1.58;;
24685;SDS011;12804;51.176;4.452;2024-02-16T02:34:49;2.33;;;1.60;;
24685;SDS011;12804;51.176;4.452;2024-02-16T02:37:15;4.38;;;1.45;;
24685;SDS011;12804;51.176;4.452;2024-02-16T02:39:41;3.33;;;1.40;;
24685;SDS011;12804;51.176;4.452;2024-02-16T02:42:07;2.92;;;1.60;;
24685;SDS011;12804;51.176;4.452;2024-02-16T02:44:33;3.22;;;1.48;;
24685;SDS011;12804;51.176;4.452;2024-02-16T02:46:59;2.25;;;1.63;;
24685;SDS011;12804;51.176;4.452;2024-02-16T02:49:25;2.13;;;1.40;;
24685;SDS011;12804;51.176;4.452;2024-02-16T02:51:50;1.80;;;1.48;;
24685;SDS011;12804;51.176;4.452;2024-02-16T02:54:16;2.28;;;1.83;;
24685;SDS011;12804;51.176;4.452;2024-02-16T02:56:42;3.00;;;1.80;;
24685;SDS011;12804;51.176;4.452;2024-02-16T02:59:08;3.30;;;1.50;;
24685;SDS011;12804;51.176;4.452;2024-02-16T03:01:36;2.90;;;1.70;;
24685;SDS011;12804;51.176;4.452;2024-02-16T03:04:02;1.98;;;1.42;;
24685;SDS011;12804;51.176;4.452;2024-02-16T03:06:28;2.47;;;1.48;;
24685;SDS011;12804;51.176;4.452;2024-02-16T03:08:54;2.60;;;1.50;;
24685;SDS011;12804;51.176;4.452;2024-02-16T03:11:20;2.72;;;1.50;;
24685;SDS011;12804;51.176;4.452;2024-02-16T03:13:46;3.95;;;1.60;;
24685;SDS011;12804;51.176;4.452;2024-02-16T03:16:12;3.90;;;1.75;;
24685;SDS011;12804;51.176;4.452;2024-02-16T03:18:37;1.70;;;1.45;;
24685;SDS011;12804;51.176;4.452;2024-02-16T03:21:03;3.03;;;1.50;;
24685;SDS011;12804;51.176;4.452;2024-02-16T03:23:30;3.20;;;1.48;;
24685;SDS011;12804;51.176;4.452;2024-02-16T03:25:56;2.25;;;1.45;;
24685;SDS011;12804;51.176;4.452;2024-02-16T03:28:22;2.90;;;1.73;;
24685;SDS011;12804;51.176;4.452;2024-02-16T03:30:47;3.70;;;1.65;;
24685;SDS011;12804;51.176;4.452;2024-02-16T03:33:13;4.35;;;1.77;;
24685;SDS011;12804;51.176;4.452;2024-02-16T03:35:39;2.22;;;1.45;;
24685;SDS011;12804;51.176;4.452;2024-02-16T03:38:05;1.65;;;1.50;;
24685;SDS011;12804;51.176;4.452;2024-02-16T03:40:31;4.72;;;1.80;;
24685;SDS011;12804;51.176;4.452;2024-02-16T03:42:58;1.98;;;1.58;;
24685;SDS011;12804;51.176;4.452;2024-02-16T03:45:24;3.10;;;1.75;;
24685;SDS011;12804;51.176;4.452;2024-02-16T03:47:52;2.67;;;1.60;;
24685;SDS011;12804;51.176;4.452;2024-02-16T03:50:21;2.88;;;1.42;;
24685;SDS011;12804;51.176;4.452;2024-02-16T03:55:16;4.43;;;1.98;;
24685;SDS011;12804;51.176;4.452;2024-02-16T03:57:42;3.67;;;1.80;;
24685;SDS011;12804;51.176;4.452;2024-02-16T04:00:08;2.30;;;1.80;;
24685;SDS011;12804;51.176;4.452;2024-02-16T04:02:38;3.08;;;1.65;;
24685;SDS011;12804;51.176;4.452;2024-02-16T04:05:04;5.00;;;1.67;;
24685;SDS011;12804;51.176;4.452;2024-02-16T04:07:30;2.88;;;1.80;;
24685;SDS011;12804;51.176;4.452;2024-02-16T04:09:56;5.47;;;1.63;;
24685;SDS011;12804;51.176;4.452;2024-02-16T04:12:22;4.28;;;1.80;;
24685;SDS011;12804;51.176;4.452;2024-02-16T04:14:48;2.83;;;1.70;;
24685;SDS011;12804;51.176;4.452;2024-02-16T04:17:14;2.53;;;1.60;;
24685;SDS011;12804;51.176;4.452;2024-02-16T04:19:40;2.20;;;1.60;;
24685;SDS011;12804;51.176;4.452;2024-02-16T04:22:05;4.90;;;1.90;;
24685;SDS011;12804;51.176;4.452;2024-02-16T04:24:32;3.20;;;1.90;;
24685;SDS011;12804;51.176;4.452;2024-02-16T04:26:58;4.65;;;1.98;;
24685;SDS011;12804;51.176;4.452;2024-02-16T04:29:24;3.63;;;1.58;;
24685;SDS011;12804;51.176;4.452;2024-02-16T04:31:50;3.85;;;2.10;;
24685;SDS011;12804;51.176;4.452;2024-02-16T04:34:15;3.60;;;1.73;;
24685;SDS011;12804;51.176;4.452;2024-02-16T04:36:41;3.95;;;1.83;;
24685;SDS011;12804;51.176;4.452;2024-02-16T04:39:08;5.75;;;1.95;;
24685;SDS011;12804;51.176;4.452;2024-02-16T04:41:35;2.60;;;1.67;;
24685;SDS011;12804;51.176;4.452;2024-02-16T04:44:01;3.17;;;2.22;;
24685;SDS011;12804;51.176;4.452;2024-02-16T04:46:27;3.22;;;2.22;;
24685;SDS011;12804;51.176;4.452;2024-02-16T04:48:53;2.83;;;1.88;;
24685;SDS011;12804;51.176;4.452;2024-02-16T04:51:19;6.55;;;3.47;;
24685;SDS011;12804;51.176;4.452;2024-02-16T04:53:45;3.40;;;2.10;;
24685;SDS011;12804;51.176;4.452;2024-02-16T04:56:11;4.93;;;2.00;;
24685;SDS011;12804;51.176;4.452;2024-02-16T04:58:40;4.30;;;2.10;;
24685;SDS011;12804;51.176;4.452;2024-02-16T05:01:06;4.70;;;2.10;;
24685;SDS011;12804;51.176;4.452;2024-02-16T05:03:32;5.38;;;1.90;;
24685;SDS011;12804;51.176;4.452;2024-02-16T05:05:59;3.40;;;2.15;;
24685;SDS011;12804;51.176;4.452;2024-02-16T05:08:25;4.78;;;2.38;;
24685;SDS011;12804;51.176;4.452;2024-02-16T05:10:51;4.00;;;2.13;;
24685;SDS011;12804;51.176;4.452;2024-02-16T05:13:17;4.07;;;1.90;;
24685;SDS011;12804;51.176;4.452;2024-02-16T05:15:43;5.32;;;2.00;;
24685;SDS011;12804;51.176;4.452;2024-02-16T05:18:08;4.25;;;2.03;;
24685;SDS011;12804;51.176;4.452;2024-02-16T05:20:37;3.63;;;2.15;;
24685;SDS011;12804;51.176;4.452;2024-02-16T05:23:03;5.50;;;2.22;;
24685;SDS011;12804;51.176;4.452;2024-02-16T05:25:29;4.50;;;2.35;;
24685;SDS011;12804;51.176;4.452;2024-02-16T05:27:55;3.67;;;1.90;;
24685;SDS011;12804;51.176;4.452;2024-02-16T05:30:20;4.88;;;2.42;;
24685;SDS011;12804;51.176;4.452;2024-02-16T05:32:46;5.15;;;2.10;;
24685;SDS011;12804;51.176;4.452;2024-02-16T05:35:14;3.17;;;2.08;;
24685;SDS011;12804;51.176;4.452;2024-02-16T05:37:40;4.40;;;2.35;;
24685;SDS011;12804;51.176;4.452;2024-02-16T05:40:09;5.95;;;2.55;;
24685;SDS011;12804;51.176;4.452;2024-02-16T05:42:51;5.20;;;2.60;;
24685;SDS011;12804;51.176;4.452;2024-02-16T05:45:17;6.82;;;2.50;;
24685;SDS011;12804;51.176;4.452;2024-02-16T05:47:46;5.93;;;2.45;;
24685;SDS011;12804;51.176;4.452;2024-02-16T05:50:13;5.60;;;2.53;;
24685;SDS011;12804;51.176;4.452;2024-02-16T05:52:39;5.35;;;2.67;;
24685;SDS011;12804;51.176;4.452;2024-02-16T05:55:06;5.88;;;2.40;;
24685;SDS011;12804;51.176;4.452;2024-02-16T05:57:33;6.90;;;2.95;;
24685;SDS011;12804;51.176;4.452;2024-02-16T06:00:00;4.72;;;2.65;;
24685;SDS011;12804;51.176;4.452;2024-02-16T06:02:30;7.18;;;2.47;;
24685;SDS011;12804;51.176;4.452;2024-02-16T06:04:57;6.85;;;2.97;;
24685;SDS011;12804;51.176;4.452;2024-02-16T06:07:23;5.65;;;2.63;;
24685;SDS011;12804;51.176;4.452;2024-02-16T06:09:48;6.07;;;2.70;;
24685;SDS011;12804;51.176;4.452;2024-02-16T06:12:14;7.05;;;3.10;;
24685;SDS011;12804;51.176;4.452;2024-02-16T06:14:41;6.55;;;2.60;;
24685;SDS011;12804;51.176;4.452;2024-02-16T06:17:07;6.57;;;3.10;;
24685;SDS011;12804;51.176;4.452;2024-02-16T06:19:34;8.00;;;3.15;;
24685;SDS011;12804;51.176;4.452;2024-02-16T06:22:02;6.57;;;2.97;;
24685;SDS011;12804;51.176;4.452;2024-02-16T06:24:29;7.18;;;3.25;;
24685;SDS011;12804;51.176;4.452;2024-02-16T06:26:55;6.50;;;3.30;;
24685;SDS011;12804;51.176;4.452;2024-02-16T06:29:21;6.90;;;3.08;;
24685;SDS011;12804;51.176;4.452;2024-02-16T06:31:47;6.22;;;2.58;;
24685;SDS011;12804;51.176;4.452;2024-02-16T06:34:15;6.72;;;2.83;;
24685;SDS011;12804;51.176;4.452;2024-02-16T06:36:41;7.32;;;3.17;;
24685;SDS011;12804;51.176;4.452;2024-02-16T06:39:07;4.22;;;2.50;;
24685;SDS011;12804;51.176;4.452;2024-02-16T06:41:39;4.60;;;2.38;;
24685;SDS011;12804;51.176;4.452;2024-02-16T06:44:05;7.43;;;2.90;;
24685;SDS011;12804;51.176;4.452;2024-02-16T06:46:31;6.38;;;3.05;;
24685;SDS011;12804;51.176;4.452;2024-02-16T06:48:56;5.63;;;2.90;;
24685;SDS011;12804;51.176;4.452;2024-02-16T06:51:23;4.82;;;2.70;;
24685;SDS011;12804;51.176;4.452;2024-02-16T06:53:49;4.88;;;2.75;;
24685;SDS011;12804;51.176;4.452;2024-02-16T06:56:16;6.95;;;2.72;;
24685;SDS011;12804;51.176;4.452;2024-02-16T06:58:43;5.85;;;2.65;;
24685;SDS011;12804;51.176;4.452;2024-02-16T07:01:12;5.57;;;2.63;;
24685;SDS011;12804;51.176;4.452;2024-02-16T07:03:39;5.35;;;2.35;;
24685;SDS011;12804;51.176;4.452;2024-02-16T07:06:05;3.80;;;2.35;;
24685;SDS011;12804;51.176;4.452;2024-02-16T07:08:44;5.63;;;2.42;;
24685;SDS011;12804;51.176;4.452;2024-02-16T07:11:10;4.47;;;2.45;;
24685;SDS011;12804;51.176;4.452;2024-02-16T07:13:41;5.97;;;2.60;;
24685;SDS011;12804;51.176;4.452;2024-02-16T07:16:08;5.60;;;2.75;;
24685;SDS011;12804;51.176;4.452;2024-02-16T07:18:36;4.05;;;2.42;;
24685;SDS011;12804;51.176;4.452;2024-02-16T07:21:02;5.68;;;2.80;;
24685;SDS011;12804;51.176;4.452;2024-02-16T07:23:29;4.40;;;2.25;;
24685;SDS011;12804;51.176;4.452;2024-02-16T07:25:55;5.53;;;2.70;;
24685;SDS011;12804;51.176;4.452;2024-02-16T07:28:22;3.60;;;2.10;;
24685;SDS011;12804;51.176;4.452;2024-02-16T07:30:48;5.00;;;2.58;;
24685;SDS011;12804;51.176;4.452;2024-02-16T07:33:15;4.20;;;2.10;;
24685;SDS011;12804;51.176;4.452;2024-02-16T07:35:41;5.50;;;2.50;;
24685;SDS011;12804;51.176;4.452;2024-02-16T07:38:06;7.90;;;3.00;;
24685;SDS011;12804;51.176;4.452;2024-02-16T07:40:32;7.10;;;2.40;;
24685;SDS011;12804;51.176;4.452;2024-02-16T07:42:58;6.85;;;2.80;;
24685;SDS011;12804;51.176;4.452;2024-02-16T07:45:24;3.42;;;2.50;;
24685;SDS011;12804;51.176;4.452;2024-02-16T07:47:50;10.95;;;2.75;;
24685;SDS011;12804;51.176;4.452;2024-02-16T07:50:20;5.13;;;2.47;;
24685;SDS011;12804;51.176;4.452;2024-02-16T07:52:47;5.13;;;3.17;;
24685;SDS011;12804;51.176;4.452;2024-02-16T07:55:14;6.38;;;2.58;;
24685;SDS011;12804;51.176;4.452;2024-02-16T07:57:40;4.25;;;2.67;;
24685;SDS011;12804;51.176;4.452;2024-02-16T08:00:06;6.95;;;2.50;;
24685;SDS011;12804;51.176;4.452;2024-02-16T08:02:32;3.28;;;2.30;;
24685;SDS011;12804;51.176;4.452;2024-02-16T08:04:58;7.72;;;2.47;;
24685;SDS011;12804;51.176;4.452;2024-02-16T08:07:24;5.03;;;2.90;;
24685;SDS011;12804;51.176;4.452;2024-02-16T08:09:50;7.47;;;2.75;;
24685;SDS011;12804;51.176;4.452;2024-02-16T08:12:16;5.82;;;2.47;;
24685;SDS011;12804;51.176;4.452;2024-02-16T08:14:42;5.60;;;3.05;;
24685;SDS011;12804;51.176;4.452;2024-02-16T08:17:08;4.65;;;2.90;;
24685;SDS011;12804;51.176;4.452;2024-02-16T08:19:35;5.90;;;3.13;;
24685;SDS011;12804;51.176;4.452;2024-02-16T08:22:02;4.85;;;2.83;;
24685;SDS011;12804;51.176;4.452;2024-02-16T08:24:36;5.93;;;2.22;;
24685;SDS011;12804;51.176;4.452;2024-02-16T08:27:02;6.63;;;2.50;;
24685;SDS011;12804;51.176;4.452;2024-02-16T08:29:29;4.10;;;2.55;;
24685;SDS011;12804;51.176;4.452;2024-02-16T08:31:55;6.55;;;2.35;;
24685;SDS011;12804;51.176;4.452;2024-02-16T08:34:21;5.30;;;2.63;;
24685;SDS011;12804;51.176;4.452;2024-02-16T08:36:48;3.00;;;2.53;;
24685;SDS011;12804;51.176;4.452;2024-02-16T08:39:15;4.25;;;2.60;;
24685;SDS011;12804;51.176;4.452;2024-02-16T08:41:41;4.57;;;2.70;;
24685;SDS011;12804;51.176;4.452;2024-02-16T08:44:09;4.90;;;2.83;;
24685;SDS011;12804;51.176;4.452;2024-02-16T08:46:35;4.28;;;2.40;;
24685;SDS011;12804;51.176;4.452;2024-02-16T08:49:02;4.97;;;2.45;;
24685;SDS011;12804;51.176;4.452;2024-02-16T08:51:28;5.20;;;2.55;;
24685;SDS011;12804;51.176;4.452;2024-02-16T08:53:54;3.80;;;2.45;;
24685;SDS011;12804;51.176;4.452;2024-02-16T08:56:20;5.03;;;2.60;;
24685;SDS011;12804;51.176;4.452;2024-02-16T08:58:46;5.00;;;2.63;;
24685;SDS011;12804;51.176;4.452;2024-02-16T09:01:14;7.63;;;2.40;;
24685;SDS011;12804;51.176;4.452;2024-02-16T09:03:42;5.65;;;2.45;;
24685;SDS011;12804;51.176;4.452;2024-02-16T09:06:08;3.95;;;2.30;;
24685;SDS011;12804;51.176;4.452;2024-02-16T09:08:34;4.00;;;2.50;;
24685;SDS011;12804;51.176;4.452;2024-02-16T09:11:03;5.57;;;2.53;;
24685;SDS011;12804;51.176;4.452;2024-02-16T09:13:39;4.68;;;2.42;;
24685;SDS011;12804;51.176;4.452;2024-02-16T09:16:05;6.55;;;2.50;;
24685;SDS011;12804;51.176;4.452;2024-02-16T09:18:32;5.75;;;2.58;;
24685;SDS011;12804;51.176;4.452;2024-02-16T09:20:58;6.60;;;2.80;;
24685;SDS011;12804;51.176;4.452;2024-02-16T09:23:25;4.97;;;2.58;;
24685;SDS011;12804;51.176;4.452;2024-02-16T09:25:51;5.95;;;2.97;;
24685;SDS011;12804;51.176;4.452;2024-02-16T09:28:17;7.22;;;2.80;;
24685;SDS011;12804;51.176;4.452;2024-02-16T09:30:44;10.95;;;2.70;;
24685;SDS011;12804;51.176;4.452;2024-02-16T09:33:10;5.40;;;2.60;;
24685;SDS011;12804;51.176;4.452;2024-02-16T09:35:36;4.82;;;2.90;;
24685;SDS011;12804;51.176;4.452;2024-02-16T09:38:02;5.30;;;2.80;;
24685;SDS011;12804;51.176;4.452;2024-02-16T09:40:28;6.60;;;2.95;;
24685;SDS011;12804;51.176;4.452;2024-02-16T09:42:54;9.30;;;2.90;;
24685;SDS011;12804;51.176;4.452;2024-02-16T09:45:20;6.18;;;3.13;;
24685;SDS011;12804;51.176;4.452;2024-02-16T09:47:47;7.82;;;3.35;;
24685;SDS011;12804;51.176;4.452;2024-02-16T09:50:15;10.35;;;3.40;;
24685;SDS011;12804;51.176;4.452;2024-02-16T09:52:41;7.70;;;3.20;;
24685;SDS011;12804;51.176;4.452;2024-02-16T09:55:12;9.35;;;2.97;;
24685;SDS011;12804;51.176;4.452;2024-02-16T09:57:39;7.45;;;3.80;;
24685;SDS011;12804;51.176;4.452;2024-02-16T10:00:05;7.05;;;3.15;;
24685;SDS011;12804;51.176;4.452;2024-02-16T10:05:11;7.55;;;3.15;;
24685;SDS011;12804;51.176;4.452;2024-02-16T10:07:41;7.13;;;3.40;;
24685;SDS011;12804;51.176;4.452;2024-02-16T10:10:26;11.27;;;3.60;;
24685;SDS011;12804;51.176;4.452;2024-02-16T10:13:07;6.07;;;2.90;;
24685;SDS011;12804;51.176;4.452;2024-02-16T10:15:33;6.82;;;3.13;;
24685;SDS011;12804;51.176;4.452;2024-02-16T10:18:00;10.13;;;4.03;;
24685;SDS011;12804;51.176;4.452;2024-02-16T10:20:27;10.55;;;4.18;;
24685;SDS011;12804;51.176;4.452;2024-02-16T10:25:37;9.68;;;3.75;;
24685;SDS011;12804;51.176;4.452;2024-02-16T10:28:06;7.15;;;4.25;;
24685;SDS011;12804;51.176;4.452;2024-02-16T10:30:37;10.15;;;4.45;;
24685;SDS011;12804;51.176;4.452;2024-02-16T10:33:04;7.47;;;4.30;;
24685;SDS011;12804;51.176;4.452;2024-02-16T10:35:32;9.75;;;4.25;;
24685;SDS011;12804;51.176;4.452;2024-02-16T10:38:02;7.53;;;4.50;;
24685;SDS011;12804;51.176;4.452;2024-02-16T10:40:37;10.57;;;5.05;;
24685;SDS011;12804;51.176;4.452;2024-02-16T10:43:04;9.10;;;5.07;;
24685;SDS011;12804;51.176;4.452;2024-02-16T10:45:34;8.13;;;4.47;;
24685;SDS011;12804;51.176;4.452;2024-02-16T10:48:02;9.95;;;5.20;;
24685;SDS011;12804;51.176;4.452;2024-02-16T10:50:28;11.60;;;5.10;;
24685;SDS011;12804;51.176;4.452;2024-02-16T10:52:54;10.02;;;5.35;;
24685;SDS011;12804;51.176;4.452;2024-02-16T10:55:23;11.68;;;5.40;;
24685;SDS011;12804;51.176;4.452;2024-02-16T10:57:49;11.65;;;5.20;;
24685;SDS011;12804;51.176;4.452;2024-02-16T11:00:19;7.57;;;4.65;;
24685;SDS011;12804;51.176;4.452;2024-02-16T11:08:00;7.97;;;5.13;;
24685;SDS011;12804;51.176;4.452;2024-02-16T11:10:33;11.35;;;5.45;;
24685;SDS011;12804;51.176;4.452;2024-02-16T11:13:02;6.97;;;5.55;;
24685;SDS011;12804;51.176;4.452;2024-02-16T11:15:32;7.47;;;5.18;;
24685;SDS011;12804;51.176;4.452;2024-02-16T11:18:03;10.65;;;6.40;;
24685;SDS011;12804;51.176;4.452;2024-02-16T11:20:36;11.07;;;6.20;;
24685;SDS011;12804;51.176;4.452;2024-02-16T11:23:06;10.80;;;5.65;;
24685;SDS011;12804;51.176;4.452;2024-02-16T11:25:35;11.27;;;6.35;;
24685;SDS011;12804;51.176;4.452;2024-02-16T11:28:02;9.68;;;6.07;;
24685;SDS011;12804;51.176;4.452;2024-02-16T11:30:31;9.38;;;6.20;;
24685;SDS011;12804;51.176;4.452;2024-02-16T11:32:59;8.60;;;5.97;;
24685;SDS011;12804;51.176;4.452;2024-02-16T11:35:25;9.65;;;6.55;;
24685;SDS011;12804;51.176;4.452;2024-02-16T11:37:51;13.02;;;7.05;;
24685;SDS011;12804;51.176;4.452;2024-02-16T11:40:17;7.60;;;6.68;;
24685;SDS011;12804;51.176;4.452;2024-02-16T11:42:44;11.27;;;7.22;;
24685;SDS011;12804;51.176;4.452;2024-02-16T11:45:12;12.85;;;7.57;;
24685;SDS011;12804;51.176;4.452;2024-02-16T11:47:38;10.73;;;8.02;;
24685;SDS011;12804;51.176;4.452;2024-02-16T11:50:04;17.33;;;9.05;;
24685;SDS011;12804;51.176;4.452;2024-02-16T11:52:38;15.23;;;9.88;;
24685;SDS011;12804;51.176;4.452;2024-02-16T11:55:04;13.48;;;9.65;;
24685;SDS011;12804;51.176;4.452;2024-02-16T11:57:34;17.90;;;10.10;;
24685;SDS011;12804;51.176;4.452;2024-02-16T12:00:03;17.10;;;12.00;;
24685;SDS011;12804;51.176;4.452;2024-02-16T12:02:34;19.60;;;13.02;;
24685;SDS011;12804;51.176;4.452;2024-02-16T12:05:01;23.73;;;13.27;;
24685;SDS011;12804;51.176;4.452;2024-02-16T12:07:27;21.98;;;14.15;;
24685;SDS011;12804;51.176;4.452;2024-02-16T12:09:55;24.13;;;16.00;;
24685;SDS011;12804;51.176;4.452;2024-02-16T12:12:31;25.50;;;16.20;;
24685;SDS011;12804;51.176;4.452;2024-02-16T12:14:58;23.80;;;16.20;;
24685;SDS011;12804;51.176;4.452;2024-02-16T12:17:24;25.20;;;17.80;;
24685;SDS011;12804;51.176;4.452;2024-02-16T12:19:50;29.77;;;17.98;;
24685;SDS011;12804;51.176;4.452;2024-02-16T12:22:17;24.90;;;15.45;;
24685;SDS011;12804;51.176;4.452;2024-02-16T12:24:45;16.92;;;11.82;;
24685;SDS011;12804;51.176;4.452;2024-02-16T12:27:11;19.08;;;11.55;;
24685;SDS011;12804;51.176;4.452;2024-02-16T12:29:38;12.18;;;9.63;;
24685;SDS011;12804;51.176;4.452;2024-02-16T12:32:04;13.13;;;8.98;;
24685;SDS011;12804;51.176;4.452;2024-02-16T12:34:30;20.10;;;9.10;;
24685;SDS011;12804;51.176;4.452;2024-02-16T12:36:56;15.98;;;8.25;;
24685;SDS011;12804;51.176;4.452;2024-02-16T12:39:22;14.30;;;7.93;;
24685;SDS011;12804;51.176;4.452;2024-02-16T12:41:48;8.15;;;5.70;;
24685;SDS011;12804;51.176;4.452;2024-02-16T12:44:14;9.13;;;5.93;;
24685;SDS011;12804;51.176;4.452;2024-02-16T12:46:40;5.82;;;4.90;;
24685;SDS011;12804;51.176;4.452;2024-02-16T12:49:08;7.95;;;4.82;;
24685;SDS011;12804;51.176;4.452;2024-02-16T12:51:34;5.78;;;4.70;;
24685;SDS011;12804;51.176;4.452;2024-02-16T12:54:00;5.47;;;4.25;;
24685;SDS011;12804;51.176;4.452;2024-02-16T12:56:29;6.47;;;4.30;;
24685;SDS011;12804;51.176;4.452;2024-02-16T12:58:55;5.00;;;3.95;;
24685;SDS011;12804;51.176;4.452;2024-02-16T13:01:22;4.72;;;3.60;;
24685;SDS011;12804;51.176;4.452;2024-02-16T13:03:48;4.70;;;3.63;;
24685;SDS011;12804;51.176;4.452;2024-02-16T13:06:14;3.75;;;3.35;;
24685;SDS011;12804;51.176;4.452;2024-02-16T13:08:39;3.88;;;3.20;;
24685;SDS011;12804;51.176;4.452;2024-02-16T13:11:05;3.80;;;3.08;;
24685;SDS011;12804;51.176;4.452;2024-02-16T13:13:31;4.30;;;3.00;;
24685;SDS011;12804;51.176;4.452;2024-02-16T13:15:57;5.50;;;3.15;;
24685;SDS011;12804;51.176;4.452;2024-02-16T13:18:24;4.93;;;2.85;;
24685;SDS011;12804;51.176;4.452;2024-02-16T13:20:50;2.78;;;2.50;;
24685;SDS011;12804;51.176;4.452;2024-02-16T13:23:16;4.63;;;3.20;;
24685;SDS011;12804;51.176;4.452;2024-02-16T13:25:42;4.57;;;2.80;;
24685;SDS011;12804;51.176;4.452;2024-02-16T13:28:08;3.25;;;2.95;;
24685;SDS011;12804;51.176;4.452;2024-02-16T13:30:34;3.97;;;2.70;;
24685;SDS011;12804;51.176;4.452;2024-02-16T13:33:00;5.88;;;3.00;;
24685;SDS011;12804;51.176;4.452;2024-02-16T13:35:25;2.95;;;2.58;;
24685;SDS011;12804;51.176;4.452;2024-02-16T13:37:51;3.90;;;2.92;;
24685;SDS011;12804;51.176;4.452;2024-02-16T13:40:17;2.50;;;2.30;;
24685;SDS011;12804;51.176;4.452;2024-02-16T13:42:43;2.60;;;2.22;;
24685;SDS011;12804;51.176;4.452;2024-02-16T13:45:10;3.58;;;2.80;;
24685;SDS011;12804;51.176;4.452;2024-02-16T13:47:36;3.65;;;3.03;;
24685;SDS011;12804;51.176;4.452;2024-02-16T13:50:05;2.72;;;2.53;;
24685;SDS011;12804;51.176;4.452;2024-02-16T13:52:32;3.20;;;2.55;;
24685;SDS011;12804;51.176;4.452;2024-02-16T13:54:59;3.28;;;2.40;;
24685;SDS011;12804;51.176;4.452;2024-02-16T13:57:25;3.90;;;2.65;;
24685;SDS011;12804;51.176;4.452;2024-02-16T13:59:51;3.15;;;2.75;;
24685;SDS011;12804;51.176;4.452;2024-02-16T14:02:17;3.35;;;2.90;;
24685;SDS011;12804;51.176;4.452;2024-02-16T14:04:43;3.50;;;2.35;;
24685;SDS011;12804;51.176;4.452;2024-02-16T14:07:09;3.80;;;2.47;;
24685;SDS011;12804;51.176;4.452;2024-02-16T14:09:35;3.03;;;2.08;;
24685;SDS011;12804;51.176;4.452;2024-02-16T14:12:01;4.00;;;2.75;;
24685;SDS011;12804;51.176;4.452;2024-02-16T14:14:27;5.05;;;3.17;;
24685;SDS011;12804;51.176;4.452;2024-02-16T14:16:53;4.28;;;3.05;;
24685;SDS011;12804;51.176;4.452;2024-02-16T14:19:19;4.47;;;4.07;;
24685;SDS011;12804;51.176;4.452;2024-02-16T14:21:45;4.30;;;3.25;;
24685;SDS011;12804;51.176;4.452;2024-02-16T14:24:15;3.60;;;3.30;;
24685;SDS011;12804;51.176;4.452;2024-02-16T14:26:44;4.00;;;3.57;;
24685;SDS011;12804;51.176;4.452;2024-02-16T14:29:09;4.85;;;3.88;;
24685;SDS011;12804;51.176;4.452;2024-02-16T14:31:36;4.18;;;3.53;;
24685;SDS011;12804;51.176;4.452;2024-02-16T14:34:01;3.65;;;2.10;;
24685;SDS011;12804;51.176;4.452;2024-02-16T14:36:27;3.35;;;1.73;;
24685;SDS011;12804;51.176;4.452;2024-02-16T14:38:53;3.22;;;1.92;;
24685;SDS011;12804;51.176;4.452;2024-02-16T14:41:19;2.47;;;2.05;;
24685;SDS011;12804;51.176;4.452;2024-02-16T14:43:46;2.50;;;1.80;;
24685;SDS011;12804;51.176;4.452;2024-02-16T14:46:12;6.10;;;5.53;;
24685;SDS011;12804;51.176;4.452;2024-02-16T14:48:39;9.70;;;8.00;;
24685;SDS011;12804;51.176;4.452;2024-02-16T14:51:05;5.35;;;4.00;;
24685;SDS011;12804;51.176;4.452;2024-02-16T14:53:30;3.42;;;2.70;;
24685;SDS011;12804;51.176;4.452;2024-02-16T14:55:58;3.33;;;2.00;;